Time;durP1;ratioP1;P1;durP2;ratioP2;P2;SDS_P1;SDS_P2;PMS_P1;PMS_P2;Temp;Humidity;BMP_temperature;BMP_pressure;BME280_temperature;BME280_humidity;BME280_pressure;Samples;Min_cycle;Max_cycle;Signal;HPM_P1;HPM_P2
2022/10/15 00:00:46;;;;;;;50.97;30.80;;;;;;;-145.18;100.00;46681.88;6183800;23;20084;-69
2022/10/15 00:03:12;;;;;;;53.23;32.20;;;;;;;-145.18;100.00;46683.84;6183410;23;20481;-69
2022/10/15 00:05:39;;;;;;;59.60;34.70;;;;;;;-145.18;100.00;46689.69;6184101;23;20424;-69
2022/10/15 00:08:06;;;;;;;56.27;33.73;;;;;;;-145.18;100.00;46679.94;6183598;23;20024;-69
2022/10/15 00:10:31;;;;;;;59.70;35.43;;;;;;;-145.18;100.00;46679.94;6184102;23;20016;-69
2022/10/15 00:12:57;;;;;;;59.87;35.30;;;;;;;-145.18;100.00;46679.94;6183594;23;20005;-69
2022/10/15 00:15:22;;;;;;;63.13;37.80;;;;;;;-145.18;100.00;46679.94;6183663;23;20008;-68
2022/10/15 00:17:48;;;;;;;69.47;38.67;;;;;;;-145.18;100.00;46679.94;6183490;23;20016;-68
2022/10/15 00:20:14;;;;;;;68.87;38.13;;;;;;;-145.18;100.00;46674.06;6157145;23;20036;-68
2022/10/15 00:22:40;;;;;;;70.27;37.30;;;;;;;-145.18;100.00;46679.94;6183661;23;20015;-69
2022/10/15 00:25:06;;;;;;;69.47;39.13;;;;;;;-145.18;100.00;46674.06;6183831;23;20037;-68
2022/10/15 00:27:33;;;;;;;68.03;39.10;;;;;;;-145.18;100.00;46676.03;6183399;23;20009;-69
2022/10/15 00:29:59;;;;;;;73.80;40.07;;;;;;;-145.18;100.00;46670.16;6184044;23;20005;-68
2022/10/15 00:32:25;;;;;;;80.80;43.53;;;;;;;-145.18;100.00;46679.94;6183345;23;20390;-68
2022/10/15 00:34:50;;;;;;;79.90;41.67;;;;;;;-145.18;100.00;46676.03;6183802;23;20009;-69
2022/10/15 00:37:16;;;;;;;75.00;43.60;;;;;;;-145.18;100.00;46677.97;6183157;23;20009;-69
2022/10/15 00:39:42;;;;;;;79.17;43.90;;;;;;;-145.18;100.00;46677.97;6183576;23;20009;-68
2022/10/15 00:42:09;;;;;;;85.50;45.67;;;;;;;-145.18;100.00;46676.03;6183246;23;20013;-69
2022/10/15 00:44:49;;;;;;;83.10;44.77;;;;;;;-145.18;100.00;46683.84;6184068;23;20071;-69
2022/10/15 00:47:34;;;;;;;76.67;44.07;;;;;;;-145.18;100.00;46670.16;6182856;23;20009;-69
2022/10/15 00:50:09;;;;;;;89.57;47.37;;;;;;;-145.18;100.00;46672.13;6184108;23;20324;-69
2022/10/15 00:52:41;;;;;;;87.75;47.05;;;;;;;-145.18;100.00;46672.13;6183284;23;20072;-68
2022/10/15 00:55:35;;;;;;;84.13;46.47;;;;;;;-145.18;100.00;46677.97;6183675;23;20001;-68
2022/10/15 00:58:10;;;;;;;79.97;46.83;;;;;;;-145.18;100.00;46681.88;6180802;23;20339;-69
2022/10/15 01:00:36;;;;;;;79.85;47.40;;;;;;;-145.18;100.00;46676.03;6183671;23;20001;-69
2022/10/15 01:03:01;;;;;;;83.07;47.17;;;;;;;-145.18;100.00;46681.88;6182680;23;20328;-69
2022/10/15 01:05:27;;;;;;;81.80;45.73;;;;;;;-145.18;100.00;46679.94;6183099;23;20020;-69
2022/10/15 01:07:53;;;;;;;75.63;44.83;;;;;;;-145.18;100.00;46679.94;6183212;23;20097;-68
2022/10/15 01:10:20;;;;;;;73.77;45.00;;;;;;;-145.18;100.00;46685.78;6183111;23;20008;-68
2022/10/15 01:12:57;;;;;;;74.93;45.17;;;;;;;-145.18;100.00;46679.94;6182911;23;20013;-68
2022/10/15 01:15:40;;;;;;;73.83;44.73;;;;;;;-145.18;100.00;46679.94;6183299;23;20037;-68
2022/10/15 01:18:13;;;;;;;76.50;45.17;;;;;;;-145.18;100.00;46689.69;6182741;23;20001;-69
2022/10/15 01:21:06;;;;;;;77.37;45.87;;;;;;;-145.18;100.00;46679.94;6183376;23;20374;-69
2022/10/15 01:23:53;;;;;;;76.97;46.90;;;;;;;-145.18;100.00;46679.94;6182814;23;20048;-68
2022/10/15 01:26:28;;;;;;;71.43;43.43;;;;;;;-145.18;100.00;46676.03;6182732;23;20009;-69
2022/10/15 01:29:16;;;;;;;81.60;45.97;;;;;;;-145.18;100.00;46670.16;6183552;23;20362;-68
2022/10/15 01:32:00;;;;;;;76.47;44.93;;;;;;;-145.18;100.00;46670.16;6183249;23;20072;-68
2022/10/15 01:34:36;;;;;;;72.87;44.60;;;;;;;-145.18;100.00;46674.06;6182905;23;20586;-68
2022/10/15 01:37:13;;;;;;;70.33;44.00;;;;;;;-145.18;100.00;46681.88;6182702;23;20082;-68
2022/10/15 01:39:50;;;;;;;71.20;43.37;;;;;;;-145.18;100.00;46679.94;6183261;23;20017;-68
2022/10/15 01:42:33;;;;;;;73.27;42.93;;;;;;;-145.18;100.00;46677.97;6182353;23;20016;-68
2022/10/15 01:45:07;;;;;;;73.10;42.90;;;;;;;-145.18;100.00;46677.97;6183305;23;20453;-68
2022/10/15 01:47:45;;;;;;;67.67;42.90;;;;;;;-145.18;100.00;46674.06;6182707;23;20020;-68
2022/10/15 01:50:13;;;;;;;72.27;42.73;;;;;;;-145.18;100.00;46676.03;6182845;23;20019;-68
2022/10/15 01:52:40;;;;;;;65.53;41.20;;;;;;;-145.18;100.00;46674.06;6182711;23;20001;-68
2022/10/15 01:55:10;;;;;;;70.50;43.20;;;;;;;-145.18;100.00;46666.25;6183360;23;20312;-68
2022/10/15 01:57:40;;;;;;;68.47;41.90;;;;;;;-145.18;100.00;46670.16;6182520;23;20308;-68
2022/10/15 02:00:06;;;;;;;69.23;41.30;;;;;;;-145.18;100.00;46674.06;6182970;23;20005;-68
2022/10/15 02:02:32;;;;;;;64.10;41.33;;;;;;;-145.18;100.00;46674.06;6180680;23;20025;-68
2022/10/15 02:04:57;;;;;;;69.17;41.17;;;;;;;-145.18;100.00;46679.94;6182750;23;20017;-68
2022/10/15 02:07:37;;;;;;;62.07;41.10;;;;;;;-145.18;100.00;46676.03;6182379;23;20020;-69
2022/10/15 02:10:12;;;;;;;64.60;42.50;;;;;;;-145.18;100.00;46668.22;6156734;23;20342;-68
2022/10/15 02:13:00;;;;;;;63.13;41.83;;;;;;;-145.18;100.00;46664.31;6182133;23;20029;-69
2022/10/15 02:15:44;;;;;;;64.70;42.27;;;;;;;-145.18;100.00;46664.31;6182612;23;20405;-69
2022/10/15 02:18:10;;;;;;;65.43;41.30;;;;;;;-145.18;100.00;46666.25;6181832;23;20108;-69
2022/10/15 02:20:54;;;;;;;68.73;41.77;;;;;;;-145.18;100.00;46668.22;6182617;23;20009;-68
2022/10/15 02:23:42;;;;;;;58.03;39.70;;;;;;;-145.18;100.00;46670.16;6181714;23;19997;-69
2022/10/15 02:26:10;;;;;;;57.47;39.23;;;;;;;-145.18;100.00;46666.25;6182566;23;19997;-68
2022/10/15 02:28:39;;;;;;;61.80;40.77;;;;;;;-145.18;100.00;46670.16;6182281;23;20427;-69
2022/10/15 02:31:08;;;;;;;59.00;39.50;;;;;;;-145.18;100.00;46668.22;6182965;23;20067;-69
2022/10/15 02:33:34;;;;;;;60.03;40.70;;;;;;;-145.18;100.00;46672.13;6182318;23;20005;-69
2022/10/15 02:36:00;;;;;;;63.73;40.60;;;;;;;-145.18;100.00;46676.03;6182293;23;20001;-68
2022/10/15 02:38:30;;;;;;;61.17;38.87;;;;;;;-145.18;100.00;46674.06;6155717;23;20350;-68
2022/10/15 02:40:55;;;;;;;60.57;40.40;;;;;;;-145.18;100.00;46676.03;6182993;23;20015;-68
2022/10/15 02:43:21;;;;;;;54.13;38.40;;;;;;;-145.18;100.00;46674.06;6181603;23;20025;-69
2022/10/15 02:45:48;;;;;;;62.10;40.23;;;;;;;-145.18;100.00;46670.16;6182766;23;20060;-69
2022/10/15 02:48:13;;;;;;;59.53;38.93;;;;;;;-145.18;100.00;46672.13;6181805;23;20335;-68
2022/10/15 02:50:39;;;;;;;59.93;39.50;;;;;;;-145.18;100.00;46670.16;6182535;23;20013;-69
2022/10/15 02:53:04;;;;;;;65.93;39.73;;;;;;;-145.18;100.00;46666.25;6182223;23;20009;-68
2022/10/15 02:55:30;;;;;;;56.27;38.40;;;;;;;-145.18;100.00;46670.16;6182171;23;20013;-69
2022/10/15 02:57:55;;;;;;;58.23;38.93;;;;;;;-145.18;100.00;46668.22;6182029;23;20001;-69
2022/10/15 03:02:59;;;;;;;55.97;34.97;;;;;;;-145.18;100.00;46670.16;6191897;22;20394;-70
2022/10/15 03:05:25;;;;;;;58.97;39.13;;;;;;;-145.18;100.00;46670.16;6242237;23;20459;-70
2022/10/15 03:07:50;;;;;;;51.57;35.67;;;;;;;-145.18;100.00;46670.16;6242187;23;20062;-70
2022/10/15 03:10:15;;;;;;;55.77;37.93;;;;;;;-145.18;100.00;46670.16;6242254;23;20726;-69
2022/10/15 03:12:41;;;;;;;60.30;36.43;;;;;;;-145.18;100.00;46670.16;6242514;23;20016;-70
2022/10/15 03:15:07;;;;;;;63.07;38.23;;;;;;;-145.18;100.00;46674.06;6242377;23;20008;-70
2022/10/15 03:17:32;;;;;;;56.13;36.77;;;;;;;-145.18;100.00;46676.03;6242138;23;20012;-70
2022/10/15 03:19:57;;;;;;;64.90;39.00;;;;;;;-145.18;100.00;46674.06;6242317;23;20015;-69
2022/10/15 03:22:23;;;;;;;61.00;40.20;;;;;;;-145.18;100.00;46668.22;6242223;23;20024;-70
2022/10/15 03:24:48;;;;;;;57.50;37.97;;;;;;;-145.18;100.00;46662.34;6242543;23;20027;-70
2022/10/15 03:27:13;;;;;;;61.03;37.13;;;;;;;-145.18;100.00;46670.16;6241921;23;20457;-70
2022/10/15 03:29:39;;;;;;;62.23;38.57;;;;;;;-145.18;100.00;46666.25;6243457;23;20008;-69
2022/10/15 03:32:04;;;;;;;58.83;39.47;;;;;;;-145.18;100.00;46672.13;6244231;23;20000;-70
2022/10/15 03:34:30;;;;;;;58.93;39.33;;;;;;;-145.18;100.00;46666.25;6244763;23;20468;-70
2022/10/15 03:36:55;;;;;;;62.93;39.57;;;;;;;-145.18;100.00;46666.25;6217603;23;20028;-69
2022/10/15 03:39:20;;;;;;;62.57;41.93;;;;;;;-145.18;100.00;46668.22;6244587;23;20011;-70
2022/10/15 03:41:46;;;;;;;60.57;40.53;;;;;;;-145.18;100.00;46672.13;6244664;23;20043;-70
2022/10/15 03:44:12;;;;;;;60.97;41.10;;;;;;;-145.18;100.00;46666.25;6244161;23;20001;-70
2022/10/15 03:46:38;;;;;;;65.27;42.90;;;;;;;-145.18;100.00;46668.22;6244595;23;20009;-70
2022/10/15 03:49:03;;;;;;;63.30;42.87;;;;;;;-145.18;100.00;46664.31;6243931;23;20031;-70
2022/10/15 03:51:28;;;;;;;63.80;41.73;;;;;;;-145.18;100.00;46672.13;6244375;23;20070;-70
2022/10/15 03:53:54;;;;;;;63.40;42.50;;;;;;;-145.18;100.00;46666.25;6244247;23;20004;-69
2022/10/15 03:56:19;;;;;;;70.23;42.93;;;;;;;-145.18;100.00;46672.13;6244350;23;20434;-70
2022/10/15 03:58:45;;;;;;;65.73;41.27;;;;;;;-145.18;100.00;46672.13;6217244;23;20333;-70
2022/10/15 04:01:14;;;;;;;63.63;41.70;;;;;;;-145.18;100.00;46672.13;6244313;23;20007;-70
2022/10/15 04:08:24;;;;;;;69.00;42.80;;;;;;;-145.18;100.00;46670.16;6243775;23;20336;-70
2022/10/15 04:12:15;;;;;;;59.17;40.40;;;;;;;-145.18;100.00;46666.25;6243853;23;20451;-70
2022/10/15 04:19:38;;;;;;;68.40;42.30;;;;;;;-145.18;100.00;46666.25;6243499;23;20471;-70
2022/10/15 04:23:30;;;;;;;71.23;42.73;;;;;;;-145.18;100.00;46668.22;6243316;23;20058;-70
2022/10/15 04:27:22;;;;;;;66.70;43.00;;;;;;;-145.18;100.00;46662.34;6244045;23;20040;-70
2022/10/15 04:42:03;;;;;;;77.27;46.33;;;;;;;-145.18;100.00;46664.31;6243259;23;20023;-70
2022/10/15 04:49:30;;;;;;;91.43;47.63;;;;;;;-145.18;100.00;46660.41;6242590;23;20027;-70
2022/10/15 04:53:23;;;;;;;95.00;47.83;;;;;;;-145.18;100.00;46662.34;6242862;23;20020;-70
2022/10/15 04:57:17;;;;;;;99.63;50.27;;;;;;;-145.18;100.00;46660.41;6243520;23;20004;-70
2022/10/15 05:01:13;;;;;;;105.47;50.67;;;;;;;-145.18;100.00;46664.31;6243523;23;20008;-70
2022/10/15 11:16:35;;;;;;;14.57;11.27;;;;;;;-145.18;100.00;46674.06;6211784;23;20599;-71
2022/10/15 11:20:37;;;;;;;17.40;10.90;;;;;;;-145.18;100.00;46670.16;6211136;23;20044;-71
2022/10/15 11:24:10;;;;;;;12.70;10.93;;;;;;;-145.18;100.00;46668.22;6211933;23;20039;-71
2022/10/15 11:27:35;;;;;;;12.97;11.30;;;;;;;-145.18;100.00;46668.22;6210944;23;20461;-71
2022/10/15 11:31:03;;;;;;;13.50;10.23;;;;;;;-145.18;100.00;46674.06;6210883;23;20012;-71
2022/10/15 11:34:40;;;;;;;13.97;10.93;;;;;;;-145.18;100.00;46672.13;6205534;23;20020;-70
2022/10/15 17:26:12;;;;;;;25.52;19.35;;;;;;;-145.18;100.00;46717.03;5128093;27;20504;-69
2022/10/15 17:28:39;;;;;;;10.33;5.67;;;;;;;-145.18;100.00;46719.00;5106218;28;20074;-69
2022/10/15 17:31:07;;;;;;;7.77;4.30;;;;;;;-145.18;100.00;46719.00;5107601;28;20597;-70
2022/10/15 17:33:35;;;;;;;12.53;4.17;;;;;;;-145.18;100.00;46715.09;5110314;28;20039;-69
2022/10/15 17:36:05;;;;;;;8.77;4.30;;;;;;;-145.18;100.00;46715.09;5107574;28;20107;-69
2022/10/15 17:38:31;;;;;;;9.60;3.83;;;;;;;-145.18;100.00;46715.09;5111524;27;20035;-69
2022/10/15 17:40:57;;;;;;;8.10;2.67;;;;;;;-145.18;100.00;46719.00;5112351;28;20035;-69
2022/10/15 17:43:23;;;;;;;8.80;2.17;;;;;;;-145.18;100.00;46719.00;5115294;28;20031;-69
2022/10/15 17:45:49;;;;;;;7.97;2.27;;;;;;;-145.18;100.00;46719.00;5110703;28;20086;-69
2022/10/15 17:48:14;;;;;;;8.60;2.73;;;;;;;-145.18;100.00;46720.94;5116350;28;20655;-69
2022/10/15 17:50:39;;;;;;;5.63;1.97;;;;;;;-145.18;100.00;46717.03;5116397;27;20108;-69
2022/10/15 17:53:05;;;;;;;3.77;2.07;;;;;;;-145.18;100.00;46719.00;5113190;28;20077;-69
2022/10/15 17:55:30;;;;;;;6.30;2.20;;;;;;;-145.18;100.00;46717.03;5116310;28;20044;-69
2022/10/15 17:57:57;;;;;;;7.57;2.80;;;;;;;-145.18;100.00;46720.94;5117100;27;20023;-69
2022/10/15 18:00:22;;;;;;;109.37;41.70;;;;;;;-145.18;100.00;46719.00;5117797;28;20024;-69
2022/10/15 18:02:49;;;;;;;23.80;13.77;;;;;;;-145.18;100.00;46717.03;5117957;27;20031;-69
2022/10/15 18:05:15;;;;;;;15.37;7.77;;;;;;;-145.18;100.00;46717.03;5117471;27;20038;-69
2022/10/15 18:07:40;;;;;;;16.47;7.60;;;;;;;-145.18;100.00;46719.00;5117315;27;20042;-69
2022/10/15 18:10:08;;;;;;;8.13;4.60;;;;;;;-145.18;100.00;46717.03;5114289;28;20496;-69
2022/10/15 18:12:33;;;;;;;9.13;4.33;;;;;;;-145.18;100.00;46717.03;5116635;27;20477;-69
2022/10/15 18:14:59;;;;;;;10.47;2.73;;;;;;;-145.18;100.00;46720.94;5117322;28;20465;-69
2022/10/15 18:17:24;;;;;;;9.10;2.63;;;;;;;-145.18;100.00;46717.03;5114211;27;20024;-69
2022/10/15 18:19:50;;;;;;;9.47;2.53;;;;;;;-145.18;100.00;46717.03;5112486;28;20031;-69
2022/10/15 18:22:15;;;;;;;8.10;2.70;;;;;;;-145.18;100.00;46720.94;5115354;27;20027;-69
2022/10/15 18:24:41;;;;;;;10.23;3.43;;;;;;;-145.18;100.00;46717.03;5117067;28;20048;-69
2022/10/15 18:27:06;;;;;;;7.50;3.10;;;;;;;-145.18;100.00;46717.03;5101519;27;20039;-69
2022/10/15 18:29:32;;;;;;;8.17;3.10;;;;;;;-145.18;100.00;46717.03;5101958;28;20092;-69
2022/10/15 18:31:57;;;;;;;8.97;4.40;;;;;;;-145.18;100.00;46717.03;5099989;28;20050;-69
2022/10/15 18:34:22;;;;;;;10.60;3.37;;;;;;;-145.18;100.00;46719.00;5096915;28;20458;-69
2022/10/15 18:36:48;;;;;;;8.60;3.30;;;;;;;-145.18;100.00;46717.03;5093635;28;20809;-69
2022/10/15 18:39:13;;;;;;;10.37;3.37;;;;;;;-145.18;100.00;46713.13;5086102;28;20044;-69
2022/10/15 18:41:39;;;;;;;8.90;3.17;;;;;;;-145.18;100.00;46719.00;5087746;28;20449;-69
2022/10/15 18:44:11;;;;;;;9.03;3.97;;;;;;;-145.18;100.00;46717.03;5083690;28;20110;-69
2022/10/15 18:46:38;;;;;;;11.27;3.50;;;;;;;-145.18;100.00;46711.19;5082539;28;20111;-69
2022/10/15 18:49:04;;;;;;;8.73;3.30;;;;;;;-145.18;100.00;46722.91;5091779;28;20023;-69
2022/10/15 18:51:30;;;;;;;13.50;4.97;;;;;;;-145.18;100.00;46713.13;5105410;28;20028;-69
2022/10/15 18:53:57;;;;;;;6.87;3.40;;;;;;;-145.18;100.00;46717.03;5094588;28;20034;-69
2022/10/15 18:56:22;;;;;;;9.03;4.03;;;;;;;-145.18;100.00;46717.03;5082072;28;20449;-69
2022/10/15 18:58:48;;;;;;;13.93;6.63;;;;;;;-145.18;100.00;46715.09;5079970;28;20107;-69
2022/10/15 19:01:35;;;;;;;8.70;4.43;;;;;;;-145.18;100.00;46713.13;5089666;28;20032;-69
2022/10/15 19:04:03;;;;;;;7.80;5.77;;;;;;;-145.18;100.00;46717.03;5100187;28;20028;-69
2022/10/15 19:06:35;;;;;;;14.43;5.07;;;;;;;-145.18;100.00;46717.03;5095157;28;20024;-69
2022/10/15 19:09:03;;;;;;;9.90;3.70;;;;;;;-145.18;100.00;46719.00;5099768;28;20487;-69
2022/10/15 19:11:29;;;;;;;11.17;2.43;;;;;;;-145.18;100.00;46717.03;5105179;28;20023;-69
2022/10/15 19:13:59;;;;;;;9.53;3.07;;;;;;;-145.18;100.00;46717.03;5103099;28;20042;-69
2022/10/15 19:16:25;;;;;;;7.37;2.87;;;;;;;-145.18;100.00;46713.13;5099277;28;20036;-69
2022/10/15 19:18:50;;;;;;;11.63;2.23;;;;;;;-145.18;100.00;46717.03;5100423;28;20035;-69
2022/10/15 19:21:16;;;;;;;8.17;3.13;;;;;;;-145.18;100.00;46715.09;5100780;28;20456;-69
2022/10/15 19:23:41;;;;;;;10.80;3.27;;;;;;;-145.18;100.00;46715.09;5101507;28;20043;-70
2022/10/15 19:26:08;;;;;;;9.20;2.57;;;;;;;-145.18;100.00;46719.00;5099179;28;20040;-69
2022/10/15 19:28:34;;;;;;;12.23;2.67;;;;;;;-145.18;100.00;46719.00;5091348;28;20036;-69
2022/10/15 19:31:01;;;;;;;9.83;2.30;;;;;;;-145.18;100.00;46719.00;5092203;28;20369;-69
2022/10/15 19:33:28;;;;;;;6.73;2.10;;;;;;;-145.18;100.00;46717.03;5091804;28;20031;-69
2022/10/15 19:35:57;;;;;;;18.77;2.50;;;;;;;-145.18;100.00;46719.00;5106321;28;20674;-69
2022/10/15 19:38:23;;;;;;;12.57;3.27;;;;;;;-145.18;100.00;46719.00;5111008;28;20039;-69
2022/10/15 19:40:49;;;;;;;5.23;2.70;;;;;;;-145.18;100.00;46717.03;5112283;28;20059;-69
2022/10/15 19:43:15;;;;;;;20.20;6.23;;;;;;;-145.18;100.00;46715.09;5112278;28;20082;-69
2022/10/15 19:45:42;;;;;;;13.60;4.60;;;;;;;-145.18;100.00;46715.09;5112223;28;20072;-69
2022/10/15 19:48:13;;;;;;;10.00;3.73;;;;;;;-145.18;100.00;46711.19;5111866;28;20061;-69
2022/10/15 19:50:41;;;;;;;7.87;4.10;;;;;;;-145.18;100.00;46711.19;5112003;27;20068;-69
2022/10/15 19:53:10;;;;;;;15.77;4.40;;;;;;;-145.18;100.00;46713.13;5112199;28;20052;-69
2022/10/15 19:55:36;;;;;;;15.33;4.73;;;;;;;-145.18;100.00;46711.19;5111858;28;20044;-69
2022/10/15 19:58:01;;;;;;;12.03;4.07;;;;;;;-145.18;100.00;46711.19;5112050;28;20061;-69
2022/10/15 20:00:26;;;;;;;9.90;4.37;;;;;;;-145.18;100.00;46711.19;5104557;28;20038;-69
2022/10/15 20:02:52;;;;;;;14.93;5.80;;;;;;;-145.18;100.00;46709.22;5089029;28;20483;-69
2022/10/15 20:05:17;;;;;;;12.73;4.97;;;;;;;-145.18;100.00;46713.13;5090947;28;20035;-69
2022/10/15 20:07:43;;;;;;;10.77;4.00;;;;;;;-145.18;100.00;46711.19;5091519;28;20446;-69
2022/10/15 20:10:09;;;;;;;15.63;4.00;;;;;;;-145.18;100.00;46713.13;5091055;28;20400;-69
2022/10/15 20:12:34;;;;;;;8.40;2.80;;;;;;;-145.18;100.00;46713.13;5091272;28;20127;-69
2022/10/15 20:15:00;;;;;;;9.07;3.50;;;;;;;-145.18;100.00;46715.09;5091259;28;20039;-69
2022/10/15 20:17:25;;;;;;;13.67;3.57;;;;;;;-145.18;100.00;46709.22;5090977;28;20055;-69
2022/10/15 20:19:51;;;;;;;9.23;3.30;;;;;;;-145.18;100.00;46715.09;5091016;28;20173;-69
2022/10/15 20:22:16;;;;;;;13.20;3.47;;;;;;;-145.18;100.00;46711.19;5090769;28;20130;-69
2022/10/15 20:24:41;;;;;;;10.60;3.20;;;;;;;-145.18;100.00;46719.00;5091058;28;20412;-69
2022/10/15 20:27:07;;;;;;;13.20;4.00;;;;;;;-145.18;100.00;46719.00;5090979;28;20044;-69
2022/10/15 20:29:32;;;;;;;13.53;3.73;;;;;;;-145.18;100.00;46713.13;5090920;28;20519;-69
2022/10/15 20:31:57;;;;;;;7.30;3.30;;;;;;;-145.18;100.00;46715.09;5090781;28;20446;-69
2022/10/15 20:34:23;;;;;;;12.60;3.20;;;;;;;-145.18;100.00;46715.09;5090677;28;20108;-69
2022/10/15 20:36:52;;;;;;;7.50;2.87;;;;;;;-145.18;100.00;46717.03;5091048;28;20072;-69
2022/10/15 20:39:17;;;;;;;9.67;3.43;;;;;;;-145.18;100.00;46715.09;5089540;28;20044;-69
2022/10/15 20:41:43;;;;;;;8.73;3.20;;;;;;;-145.18;100.00;46715.09;5090690;28;20066;-69
2022/10/15 20:44:09;;;;;;;9.20;3.43;;;;;;;-145.18;100.00;46711.19;5090483;28;20613;-69
2022/10/15 20:46:38;;;;;;;10.70;3.63;;;;;;;-145.18;100.00;46719.00;5090438;28;20081;-69
2022/10/15 20:49:07;;;;;;;9.43;2.40;;;;;;;-145.18;100.00;46719.00;5089192;28;20031;-69
2022/10/15 20:51:34;;;;;;;8.37;2.50;;;;;;;-145.18;100.00;46715.09;5089909;28;20027;-69
2022/10/15 20:54:01;;;;;;;5.07;2.10;;;;;;;-145.18;100.00;46713.13;5090510;28;20396;-69
2022/10/15 20:56:26;;;;;;;12.00;2.80;;;;;;;-145.18;100.00;46711.19;5090200;28;20040;-69
2022/10/15 20:58:52;;;;;;;9.73;2.60;;;;;;;-145.18;100.00;46715.09;5090556;28;20135;-69
2022/10/15 21:01:18;;;;;;;10.07;2.30;;;;;;;-145.18;100.00;46713.13;5090549;28;20086;-69
2022/10/15 21:03:43;;;;;;;11.90;2.10;;;;;;;-145.18;100.00;46711.19;5090420;28;20374;-69
2022/10/15 21:06:09;;;;;;;9.90;3.37;;;;;;;-145.18;100.00;46713.13;5090406;28;20062;-69
2022/10/15 21:08:35;;;;;;;10.20;2.80;;;;;;;-145.18;100.00;46713.13;5090482;28;20125;-69
2022/10/15 21:11:04;;;;;;;10.93;3.10;;;;;;;-145.18;100.00;46711.19;5090178;28;20116;-69
2022/10/15 21:13:30;;;;;;;4.87;1.87;;;;;;;-145.18;100.00;46713.13;5090014;28;20020;-69
2022/10/15 21:16:00;;;;;;;7.97;2.33;;;;;;;-145.18;100.00;46713.13;5090383;28;20031;-69
2022/10/15 21:18:27;;;;;;;9.37;2.40;;;;;;;-145.18;100.00;46717.03;5089696;28;20032;-69
2022/10/15 21:21:07;;;;;;;12.17;3.33;;;;;;;-145.18;100.00;46709.22;5090337;28;20488;-69
2022/10/15 21:23:33;;;;;;;6.67;1.83;;;;;;;-145.18;100.00;46711.19;5090164;28;20082;-69
2022/10/15 21:26:10;;;;;;;5.50;1.87;;;;;;;-145.18;100.00;46715.09;5089912;28;20072;-69
2022/10/15 21:28:35;;;;;;;8.07;1.80;;;;;;;-145.18;100.00;46713.13;5089891;28;20407;-69
2022/10/15 21:31:09;;;;;;;7.17;1.80;;;;;;;-145.18;100.00;46713.13;5090235;28;20039;-69
2022/10/15 21:33:35;;;;;;;10.03;2.27;;;;;;;-145.18;100.00;46713.13;5090103;28;20032;-69
2022/10/15 21:36:20;;;;;;;5.97;1.90;;;;;;;-145.18;100.00;46715.09;5090177;28;20028;-69
2022/10/15 21:38:47;;;;;;;8.30;2.10;;;;;;;-145.18;100.00;46713.13;5090387;28;20071;-69
2022/10/15 21:41:12;;;;;;;7.77;1.93;;;;;;;-145.18;100.00;46709.22;5089903;28;20024;-69
2022/10/15 21:43:37;;;;;;;9.50;2.60;;;;;;;-145.18;100.00;46715.09;5089967;28;20038;-69
2022/10/15 21:46:08;;;;;;;10.23;1.87;;;;;;;-145.18;100.00;46711.19;5090085;28;20484;-69
2022/10/15 21:48:37;;;;;;;8.00;2.03;;;;;;;-145.18;100.00;46713.13;5089818;28;20376;-69
2022/10/15 21:51:04;;;;;;;7.63;1.57;;;;;;;-145.18;100.00;46713.13;5088655;28;20029;-69
2022/10/15 21:53:29;;;;;;;7.23;1.63;;;;;;;-145.18;100.00;46713.13;5089667;28;20047;-70
2022/10/15 21:55:55;;;;;;;4.97;1.73;;;;;;;-145.18;100.00;46715.09;5089815;28;20032;-69
2022/10/15 21:58:21;;;;;;;8.47;2.17;;;;;;;-145.18;100.00;46713.13;5089956;28;20036;-69
2022/10/15 22:00:47;;;;;;;12.90;2.20;;;;;;;-145.18;100.00;46713.13;5090921;28;20036;-69
2022/10/15 22:03:13;;;;;;;10.60;2.70;;;;;;;-145.18;100.00;46713.13;5093368;28;20024;-69
2022/10/15 22:05:38;;;;;;;7.03;2.50;;;;;;;-145.18;100.00;46715.09;5093384;28;20089;-69
2022/10/15 22:08:04;;;;;;;8.60;2.17;;;;;;;-145.18;100.00;46715.09;5093695;28;20043;-69
2022/10/15 22:10:30;;;;;;;6.47;2.30;;;;;;;-145.18;100.00;46717.03;5093491;28;20110;-69
2022/10/15 22:12:56;;;;;;;5.90;2.47;;;;;;;-145.18;100.00;46715.09;5093568;28;20128;-69
2022/10/15 22:15:22;;;;;;;11.00;2.70;;;;;;;-145.18;100.00;46713.13;5093307;28;20032;-69
2022/10/15 22:17:47;;;;;;;4.87;2.03;;;;;;;-145.18;100.00;46711.19;5093051;28;20369;-69
2022/10/15 22:20:13;;;;;;;9.13;2.23;;;;;;;-145.18;100.00;46717.03;5093592;28;20051;-69
2022/10/15 22:22:38;;;;;;;7.87;3.33;;;;;;;-145.18;100.00;46707.28;5093272;28;20028;-69
2022/10/15 22:25:04;;;;;;;12.00;2.70;;;;;;;-145.18;100.00;46719.00;5093356;28;20127;-69
2022/10/15 22:27:29;;;;;;;5.87;2.30;;;;;;;-145.18;100.00;46715.09;5092781;28;20473;-69
2022/10/15 22:29:55;;;;;;;7.70;2.70;;;;;;;-145.18;100.00;46715.09;5093478;28;20051;-69
2022/10/15 22:32:20;;;;;;;7.90;2.30;;;;;;;-145.18;100.00;46717.03;5074742;28;20035;-68
2022/10/15 22:34:45;;;;;;;5.53;2.10;;;;;;;-145.18;100.00;46711.19;5072760;28;20044;-69
2022/10/15 22:37:11;;;;;;;6.17;2.67;;;;;;;-145.18;100.00;46717.03;5072586;28;20024;-69
2022/10/15 22:39:36;;;;;;;9.03;2.10;;;;;;;-145.18;100.00;46713.13;5072695;28;20124;-69
2022/10/15 22:42:03;;;;;;;6.97;2.03;;;;;;;-145.18;100.00;46713.13;5072661;28;20033;-69
2022/10/15 22:44:28;;;;;;;7.20;2.20;;;;;;;-145.18;100.00;46717.03;5072615;28;20076;-69
2022/10/15 22:46:53;;;;;;;12.07;2.63;;;;;;;-145.18;100.00;46715.09;5072648;28;20108;-69
2022/10/15 22:49:21;;;;;;;9.20;2.07;;;;;;;-145.18;100.00;46715.09;5072529;28;20028;-69
2022/10/15 22:51:48;;;;;;;6.30;2.03;;;;;;;-145.18;100.00;46709.22;5072728;28;20028;-69
2022/10/15 22:54:15;;;;;;;5.50;1.97;;;;;;;-145.18;100.00;46715.09;5072500;28;20115;-69
2022/10/15 22:56:40;;;;;;;5.57;2.40;;;;;;;-145.18;100.00;46713.13;5072431;28;20028;-69
2022/10/15 22:59:06;;;;;;;4.97;2.37;;;;;;;-145.18;100.00;46707.28;5072417;28;20094;-69
2022/10/15 23:01:33;;;;;;;5.13;1.97;;;;;;;-145.18;100.00;46711.19;5071906;28;20036;-69
2022/10/15 23:04:00;;;;;;;7.07;2.83;;;;;;;-145.18;100.00;46707.28;5072349;28;20044;-69
2022/10/15 23:06:27;;;;;;;7.33;2.50;;;;;;;-145.18;100.00;46709.22;5071899;28;20036;-69
2022/10/15 23:08:54;;;;;;;9.47;2.70;;;;;;;-145.18;100.00;46709.22;5071044;28;20040;-69
2022/10/15 23:11:26;;;;;;;9.63;2.27;;;;;;;-145.18;100.00;46709.22;5083149;28;20039;-69
2022/10/15 23:13:54;;;;;;;8.20;2.30;;;;;;;-145.18;100.00;46709.22;5092238;28;20541;-69
2022/10/15 23:16:25;;;;;;;12.00;2.30;;;;;;;-145.18;100.00;46703.38;5091863;28;20032;-69
2022/10/15 23:18:55;;;;;;;5.00;2.17;;;;;;;-145.18;100.00;46709.22;5092261;28;20040;-69
2022/10/15 23:21:28;;;;;;;9.80;3.67;;;;;;;-145.18;100.00;46709.22;5092264;28;20047;-69
2022/10/15 23:23:54;;;;;;;9.70;2.63;;;;;;;-145.18;100.00;46707.28;5092071;28;20488;-69
2022/10/15 23:26:19;;;;;;;13.53;2.90;;;;;;;-145.18;100.00;46709.22;5092113;28;20046;-69
2022/10/15 23:28:50;;;;;;;7.60;2.87;;;;;;;-145.18;100.00;46709.22;5091882;28;20651;-69
2022/10/15 23:31:23;;;;;;;8.13;2.67;;;;;;;-145.18;100.00;46707.28;5091955;28;20024;-69
2022/10/15 23:33:48;;;;;;;9.37;3.10;;;;;;;-145.18;100.00;46705.31;5091840;28;20114;-69
2022/10/15 23:36:16;;;;;;;7.90;2.83;;;;;;;-145.18;100.00;46707.28;5091813;28;20116;-69
2022/10/15 23:38:41;;;;;;;4.97;2.73;;;;;;;-145.18;100.00;46705.31;5091488;28;20055;-69
2022/10/15 23:41:09;;;;;;;8.83;2.63;;;;;;;-145.18;100.00;46703.38;5091809;28;20137;-68
2022/10/15 23:43:34;;;;;;;12.73;3.17;;;;;;;-145.18;100.00;46699.47;5091515;28;20512;-69
2022/10/15 23:46:00;;;;;;;5.33;2.80;;;;;;;-145.18;100.00;46695.56;5091678;28;20125;-69
2022/10/15 23:48:26;;;;;;;6.63;3.37;;;;;;;-145.18;100.00;46701.41;5091605;28;20120;-69
2022/10/15 23:50:52;;;;;;;7.90;3.27;;;;;;;-145.18;100.00;46691.66;5091756;28;20036;-69